Time;durP1;ratioP1;P1;durP2;ratioP2;P2;SDS_P1;SDS_P2;PMS_P1;PMS_P2;Temp;Humidity;BMP_temperature;BMP_pressure;BME280_temperature;BME280_humidity;BME280_pressure;Samples;Min_cycle;Max_cycle;Signal;HPM_P1;HPM_P2
2022/12/01 00:00:46;;;;;;;21.58;13.80;;;;;;;9.54;70.21;98842.50;5091656;28;20024;-48
2022/12/01 00:03:12;;;;;;;19.02;14.45;;;;;;;9.47;70.63;98846.88;5091725;28;20055;-49
2022/12/01 00:05:38;;;;;;;24.13;13.15;;;;;;;9.44;71.04;98840.22;5073525;28;20489;-49
2022/12/01 00:08:04;;;;;;;22.65;14.07;;;;;;;9.49;71.23;98842.25;5091807;28;20020;-49
2022/12/01 00:10:31;;;;;;;22.77;12.55;;;;;;;9.55;70.84;98833.63;5095664;28;20059;-48
2022/12/01 00:12:59;;;;;;;22.77;13.27;;;;;;;9.41;70.07;98835.34;5094318;28;20521;-48
2022/12/01 00:15:30;;;;;;;21.08;13.52;;;;;;;9.22;70.90;98831.56;5095564;28;20020;-49
2022/12/01 00:17:57;;;;;;;20.80;14.48;;;;;;;9.29;71.19;98839.47;5094051;28;20413;-49
2022/12/01 00:20:23;;;;;;;22.02;12.65;;;;;;;9.33;71.31;98841.50;5095414;28;20092;-49
2022/12/01 00:22:49;;;;;;;23.27;16.83;;;;;;;9.32;71.13;98839.91;5095470;28;20032;-48
2022/12/01 00:25:17;;;;;;;24.10;13.05;;;;;;;9.38;71.08;98841.78;5095418;28;20102;-48
2022/12/01 00:27:46;;;;;;;22.67;13.57;;;;;;;9.46;70.87;98838.22;5095406;28;20108;-48
2022/12/01 00:30:12;;;;;;;21.42;12.93;;;;;;;9.45;70.62;98835.78;5093971;28;20024;-48
2022/12/01 00:32:37;;;;;;;22.27;12.05;;;;;;;9.35;70.33;98831.66;5095296;28;20028;-48
2022/12/01 00:35:04;;;;;;;19.50;14.15;;;;;;;9.29;70.62;98844.69;5093880;28;20026;-49
2022/12/01 00:37:32;;;;;;;14.90;11.13;;;;;;;9.27;70.67;98837.03;5093828;28;20509;-48
2022/12/01 00:39:58;;;;;;;19.17;12.30;;;;;;;9.38;70.24;98833.13;5093706;28;20028;-48
2022/12/01 00:42:24;;;;;;;20.60;12.85;;;;;;;9.44;69.72;98842.84;5095087;28;20020;-48
2022/12/01 00:44:50;;;;;;;22.70;12.68;;;;;;;9.49;69.64;98840.44;5093883;28;20024;-48
2022/12/01 00:47:16;;;;;;;18.70;11.52;;;;;;;9.53;69.31;98833.03;5094888;28;20495;-48
2022/12/01 00:49:44;;;;;;;16.38;11.75;;;;;;;9.53;68.51;98835.63;5093581;28;20058;-48
2022/12/01 00:52:12;;;;;;;21.77;12.15;;;;;;;9.59;68.87;98840.13;5094898;28;20502;-48
2022/12/01 00:54:38;;;;;;;18.20;12.10;;;;;;;9.65;68.33;98846.41;5094796;28;20024;-49
2022/12/01 00:57:04;;;;;;;16.02;11.70;;;;;;;9.73;68.11;98841.84;5094813;28;20043;-48
2022/12/01 00:59:29;;;;;;;16.27;11.60;;;;;;;9.83;67.79;98851.97;5093355;28;20020;-48
2022/12/01 01:01:55;;;;;;;23.88;13.60;;;;;;;9.83;67.86;98838.06;5094717;28;20066;-48
2022/12/01 01:04:21;;;;;;;18.23;12.50;;;;;;;9.76;68.32;98844.09;5094614;28;20461;-49
2022/12/01 01:06:46;;;;;;;24.25;14.25;;;;;;;9.82;70.34;98845.13;5093308;28;20074;-48
2022/12/01 01:09:13;;;;;;;19.25;13.63;;;;;;;10.03;70.21;98841.63;5094587;28;20054;-49
2022/12/01 01:11:39;;;;;;;17.48;12.18;;;;;;;10.15;69.83;98847.16;5094513;28;20032;-49
2022/12/01 01:14:06;;;;;;;17.08;12.10;;;;;;;10.26;69.01;98846.63;5094756;28;20020;-48
2022/12/01 01:16:32;;;;;;;19.52;12.10;;;;;;;10.35;69.10;98853.34;5093104;28;20513;-49
2022/12/01 01:18:58;;;;;;;14.70;11.85;;;;;;;10.41;68.72;98854.38;5092845;28;20058;-49
2022/12/01 01:21:24;;;;;;;20.27;11.85;;;;;;;10.37;68.21;98853.94;5093213;28;20024;-49
2022/12/01 01:23:51;;;;;;;19.23;11.82;;;;;;;10.32;67.68;98858.16;5093051;28;20058;-48
2022/12/01 01:26:23;;;;;;;18.17;10.70;;;;;;;10.25;67.20;98862.53;5092912;28;20119;-49
2022/12/01 01:28:50;;;;;;;14.18;10.75;;;;;;;10.25;67.32;98862.53;5092952;28;20182;-48
2022/12/01 01:31:19;;;;;;;17.50;10.68;;;;;;;10.21;66.57;98862.09;5094192;28;20013;-48
2022/12/01 01:33:45;;;;;;;14.38;10.77;;;;;;;10.18;66.77;98871.19;5094192;28;20020;-48
2022/12/01 01:36:12;;;;;;;12.65;10.93;;;;;;;10.10;66.35;98862.63;5092705;28;20031;-48
2022/12/01 01:38:37;;;;;;;16.92;11.55;;;;;;;10.07;66.39;98868.28;5092744;28;20401;-49
2022/12/01 01:41:06;;;;;;;17.73;11.18;;;;;;;10.05;66.28;98870.28;5093966;28;20024;-48
2022/12/01 01:43:44;;;;;;;17.30;11.10;;;;;;;9.98;66.06;98863.19;5093966;28;20024;-48
2022/12/01 01:46:14;;;;;;;19.08;10.05;;;;;;;9.93;65.86;98867.38;5092509;28;20051;-48
2022/12/01 01:48:42;;;;;;;14.73;11.25;;;;;;;9.89;66.00;98866.16;5092519;28;20024;-48
2022/12/01 01:51:09;;;;;;;15.48;11.70;;;;;;;9.82;66.02;98870.53;5093780;28;20032;-48
2022/12/01 01:53:35;;;;;;;19.13;11.43;;;;;;;9.87;66.10;98868.94;5092787;28;20079;-48
2022/12/01 01:56:02;;;;;;;20.42;12.48;;;;;;;9.96;66.11;98870.44;5092514;28;20501;-48
2022/12/01 01:58:30;;;;;;;18.70;10.73;;;;;;;10.04;65.52;98869.50;5092371;28;20114;-49
2022/12/01 02:00:56;;;;;;;19.17;12.05;;;;;;;10.08;65.34;98875.97;5092276;28;20063;-49
2022/12/01 02:03:23;;;;;;;20.00;11.75;;;;;;;10.09;65.49;98872.31;5092193;28;20051;-48
2022/12/01 02:05:49;;;;;;;17.65;11.10;;;;;;;10.11;65.23;98874.75;5093507;28;20099;-49
2022/12/01 02:08:15;;;;;;;15.27;11.20;;;;;;;10.12;64.85;98871.13;5093447;28;20093;-49
2022/12/01 02:11:06;;;;;;;18.25;11.05;;;;;;;10.05;64.80;98870.28;5093354;28;20402;-48
2022/12/01 02:13:34;;;;;;;17.70;12.07;;;;;;;9.94;64.81;98871.59;5093394;28;20111;-49
2022/12/01 02:16:48;;;;;;;14.18;11.68;;;;;;;9.83;65.36;98872.16;5091939;28;20024;-48
2022/12/01 02:19:26;;;;;;;21.48;11.32;;;;;;;9.79;65.31;98872.53;5079307;28;20084;-49
2022/12/01 02:22:29;;;;;;;20.42;11.07;;;;;;;9.80;65.17;98870.72;5093158;28;20043;-48
2022/12/01 02:25:18;;;;;;;18.98;11.07;;;;;;;9.78;64.87;98876.16;5093110;28;20035;-48
2022/12/01 02:28:04;;;;;;;22.30;11.57;;;;;;;9.72;65.01;98873.50;5093085;28;20502;-49
2022/12/01 02:30:53;;;;;;;17.17;11.00;;;;;;;9.66;65.31;98869.81;5074906;28;20024;-49
2022/12/01 02:33:22;;;;;;;19.50;11.38;;;;;;;9.53;65.47;98882.78;5092988;28;20024;-49
2022/12/01 02:35:51;;;;;;;21.98;11.50;;;;;;;9.54;65.61;98887.84;5092977;28;20047;-49
2022/12/01 02:38:31;;;;;;;16.88;11.00;;;;;;;9.52;65.31;98886.44;5092905;28;20524;-48
2022/12/01 02:41:10;;;;;;;15.20;11.15;;;;;;;9.46;65.78;98881.94;5091455;28;20028;-48
2022/12/01 02:43:42;;;;;;;15.98;10.80;;;;;;;9.47;65.76;98886.16;5092893;28;20107;-48
2022/12/01 02:46:19;;;;;;;15.30;10.88;;;;;;;9.50;65.66;98889.22;5091479;28;20028;-49
2022/12/01 02:48:50;;;;;;;16.30;11.27;;;;;;;9.47;65.52;98884.34;5092771;28;20024;-48
2022/12/01 02:51:24;;;;;;;15.23;10.27;;;;;;;9.43;65.76;98887.53;5091363;28;20060;-49
2022/12/01 02:53:51;;;;;;;16.60;11.45;;;;;;;9.40;65.54;98886.91;5091313;28;20093;-48
2022/12/01 02:56:20;;;;;;;18.42;10.48;;;;;;;9.50;65.82;98883.19;5091442;28;20035;-49
2022/12/01 02:58:46;;;;;;;14.55;10.70;;;;;;;9.64;65.44;98877.06;5091153;28;20028;-49
2022/12/01 03:01:26;;;;;;;13.40;10.48;;;;;;;9.76;64.96;98878.16;5091065;28;20024;-48
2022/12/01 03:04:00;;;;;;;15.25;11.60;;;;;;;9.80;64.35;98874.16;5091207;28;20024;-48
2022/12/01 03:07:07;;;;;;;16.50;11.90;;;;;;;9.80;64.60;98874.16;5091132;28;20036;-48
2022/12/01 03:10:00;;;;;;;15.05;10.25;;;;;;;9.84;64.66;98879.00;5081852;28;20121;-49
2022/12/01 03:12:38;;;;;;;19.85;10.23;;;;;;;9.79;64.85;98876.97;5092301;28;20489;-48
2022/12/01 03:15:17;;;;;;;15.05;9.73;;;;;;;9.79;64.58;98879.59;5090940;28;20032;-48
2022/12/01 03:17:49;;;;;;;13.43;10.52;;;;;;;9.77;64.81;98885.00;5091973;28;20177;-49
2022/12/01 03:20:37;;;;;;;14.20;10.23;;;;;;;9.69;64.98;98873.84;5092183;28;20655;-48
2022/12/01 03:23:17;;;;;;;75.63;53.38;;;;;;;9.60;65.07;98873.19;5090838;28;20123;-49
2022/12/01 03:25:48;;;;;;;100.85;68.53;;;;;;;9.51;65.33;98882.19;5091013;28;20035;-48
2022/12/01 03:28:20;;;;;;;108.13;76.75;;;;;;;9.44;65.51;98876.06;5092147;28;20425;-48
2022/12/01 03:30:49;;;;;;;87.32;57.15;;;;;;;9.36;65.70;98875.19;5090773;28;20485;-49
2022/12/01 03:33:31;;;;;;;95.00;58.72;;;;;;;9.36;65.99;98869.16;5090686;28;20031;-48
2022/12/01 03:36:04;;;;;;;63.85;41.95;;;;;;;9.38;65.92;98870.59;5091062;28;20031;-49
2022/12/01 03:38:32;;;;;;;52.40;38.83;;;;;;;9.33;65.59;98866.91;5091949;28;20040;-49
2022/12/01 03:41:04;;;;;;;41.00;29.48;;;;;;;9.26;65.47;98860.81;5091735;28;20048;-48
2022/12/01 03:43:39;;;;;;;1999.90;908.10;;;;;;;9.22;65.61;98867.41;5090072;28;20029;-49
2022/12/01 03:46:16;;;;;;;1999.90;999.90;;;;;;;9.16;65.82;98868.97;5090539;28;20020;-49
2022/12/01 03:48:42;;;;;;;799.78;305.77;;;;;;;9.17;65.97;98868.75;5091819;28;20047;-48
2022/12/01 03:51:30;;;;;;;1010.33;644.47;;;;;;;9.20;66.09;98872.84;5073782;28;20101;-49
2022/12/01 03:54:17;;;;;;;1999.90;999.90;;;;;;;9.25;65.90;98870.44;5091825;28;20039;-49
2022/12/01 03:56:54;;;;;;;1999.90;874.90;;;;;;;9.25;65.86;98867.84;5091723;28;20040;-49
2022/12/01 03:59:23;;;;;;;1999.90;999.90;;;;;;;9.25;66.26;98874.88;5091702;28;20082;-49
2022/12/01 04:01:49;;;;;;;1999.90;999.90;;;;;;;9.28;66.34;98871.91;5090226;28;20171;-48
2022/12/01 04:04:15;;;;;;;1999.90;999.00;;;;;;;9.32;66.39;98873.16;5091693;28;20210;-49
2022/12/01 04:06:45;;;;;;;827.03;393.85;;;;;;;9.30;65.98;98868.09;5091648;28;20016;-48
2022/12/01 04:09:11;;;;;;;299.70;126.55;;;;;;;9.27;66.12;98863.22;5090294;28;20512;-48
2022/12/01 04:14:21;;;;;;;1999.90;999.90;;;;;;;9.11;65.78;98868.69;5091855;28;20039;-49
2022/12/01 04:16:46;;;;;;;1005.08;730.17;;;;;;;9.05;66.26;98874.69;5091502;28;20103;-48
2022/12/01 04:19:12;;;;;;;349.58;222.05;;;;;;;9.05;66.73;98875.50;5089962;28;20525;-49
2022/12/01 04:21:38;;;;;;;116.70;62.97;;;;;;;9.05;66.59;98877.31;5090088;28;20024;-48
2022/12/01 04:24:03;;;;;;;94.95;40.47;;;;;;;9.00;66.46;98867.41;5091407;28;20020;-49
2022/12/01 04:26:32;;;;;;;67.53;31.65;;;;;;;8.88;66.35;98868.88;5091684;28;20162;-49
2022/12/01 04:29:00;;;;;;;75.57;37.90;;;;;;;8.69;66.62;98875.50;5090145;28;20366;-48
2022/12/01 04:31:25;;;;;;;65.28;30.08;;;;;;;8.56;67.37;98868.31;5090123;28;20032;-48
2022/12/01 04:33:53;;;;;;;61.35;29.52;;;;;;;8.51;67.43;98870.66;5090088;28;20023;-49
2022/12/01 04:36:18;;;;;;;46.55;21.88;;;;;;;8.37;67.28;98867.84;5091349;28;20121;-49
2022/12/01 04:38:44;;;;;;;44.92;24.45;;;;;;;8.18;68.15;98863.97;5091392;28;20490;-49
2022/12/01 04:41:11;;;;;;;37.20;20.13;;;;;;;8.08;68.15;98873.06;5091263;28;20062;-49
2022/12/01 04:43:37;;;;;;;48.92;22.58;;;;;;;8.03;68.48;98871.00;5091305;28;20500;-49
2022/12/01 04:46:03;;;;;;;35.78;20.25;;;;;;;8.09;69.08;98875.50;5089945;28;20032;-48
2022/12/01 04:48:29;;;;;;;25.20;15.10;;;;;;;8.17;69.43;98872.81;5091554;28;20437;-48
2022/12/01 04:50:54;;;;;;;21.60;12.48;;;;;;;8.25;68.83;98873.69;5091250;28;20085;-49
2022/12/01 04:53:20;;;;;;;19.17;13.70;;;;;;;8.26;68.56;98875.31;5091208;28;20422;-48
2022/12/01 04:55:45;;;;;;;30.20;15.35;;;;;;;8.31;68.83;98879.03;5092298;28;20073;-48
2022/12/01 04:58:11;;;;;;;28.60;13.82;;;;;;;8.48;68.80;98869.22;5094805;28;20025;-49
2022/12/01 05:00:37;;;;;;;28.60;14.07;;;;;;;8.75;68.68;98872.13;5093407;28;20047;-48
2022/12/01 05:03:03;;;;;;;27.67;13.77;;;;;;;9.00;68.21;98870.81;5076510;28;20099;-48
2022/12/01 05:05:29;;;;;;;28.17;12.80;;;;;;;9.12;67.90;98871.16;5076552;28;20441;-49
2022/12/01 05:07:57;;;;;;;29.17;13.27;;;;;;;9.17;67.36;98876.63;5094693;28;20091;-49
2022/12/01 05:10:23;;;;;;;23.17;12.30;;;;;;;9.18;67.32;98872.22;5093252;28;20066;-48
2022/12/01 05:12:49;;;;;;;23.15;13.05;;;;;;;9.17;67.07;98870.56;5094611;28;20469;-48
2022/12/01 05:15:15;;;;;;;27.33;12.63;;;;;;;9.08;67.11;98874.31;5093249;28;20047;-48
2022/12/01 05:17:41;;;;;;;26.13;12.18;;;;;;;8.91;67.58;98873.72;5092882;28;20075;-49
2022/12/01 05:22:51;;;;;;;31.60;13.63;;;;;;;8.90;67.88;98867.69;5094668;28;20086;-48
2022/12/01 05:25:18;;;;;;;34.45;17.88;;;;;;;8.83;67.92;98876.47;5092929;28;20032;-49
2022/12/01 05:27:44;;;;;;;32.33;15.93;;;;;;;8.86;68.46;98873.50;5094327;28;20039;-49
2022/12/01 05:30:10;;;;;;;22.67;14.98;;;;;;;8.94;68.46;98878.59;5092890;28;20024;-49
2022/12/01 05:32:35;;;;;;;27.13;14.05;;;;;;;9.03;68.72;98874.06;5094205;28;20125;-48
2022/12/01 05:35:01;;;;;;;18.48;10.32;;;;;;;8.98;68.34;98878.03;5094049;28;20486;-48
2022/12/01 05:37:32;;;;;;;20.80;11.48;;;;;;;8.97;68.20;98886.06;5094137;28;20039;-49
2022/12/01 05:39:58;;;;;;;24.80;13.00;;;;;;;8.94;68.08;98883.84;5093992;28;20032;-49
2022/12/01 05:42:23;;;;;;;19.35;11.57;;;;;;;8.93;68.14;98892.69;5093952;28;20406;-48
2022/12/01 05:44:49;;;;;;;26.30;11.95;;;;;;;8.87;68.12;98896.84;5092616;28;20012;-48
2022/12/01 05:47:15;;;;;;;19.70;11.70;;;;;;;8.82;68.04;98890.56;5092563;28;20024;-48
2022/12/01 05:49:40;;;;;;;20.67;11.85;;;;;;;8.77;68.19;98891.91;5092485;28;20028;-49
2022/12/01 05:52:06;;;;;;;20.60;12.40;;;;;;;8.74;68.45;98892.28;5092422;28;20035;-49
2022/12/01 05:54:31;;;;;;;24.38;13.23;;;;;;;8.73;68.55;98895.91;5093792;28;20016;-48
2022/12/01 05:56:57;;;;;;;21.02;12.13;;;;;;;8.68;68.35;98887.78;5092325;28;20024;-49
2022/12/01 05:59:23;;;;;;;19.55;11.95;;;;;;;8.64;68.23;98896.19;5093658;28;20066;-48
2022/12/01 06:01:48;;;;;;;19.02;10.85;;;;;;;8.60;68.09;98896.53;5093489;28;20028;-48
2022/12/01 06:04:14;;;;;;;20.35;10.88;;;;;;;8.60;68.14;98899.13;5075403;28;20525;-49
2022/12/01 06:06:39;;;;;;;16.20;11.18;;;;;;;8.62;68.13;98892.94;5093064;28;20020;-48
2022/12/01 06:09:05;;;;;;;22.05;12.73;;;;;;;8.64;68.18;98893.56;5092125;28;20039;-48
2022/12/01 06:11:31;;;;;;;22.25;11.77;;;;;;;8.65;68.05;98900.41;5093453;28;20028;-48
2022/12/01 06:13:56;;;;;;;14.80;11.23;;;;;;;8.64;67.80;98899.59;5092033;28;20539;-48
2022/12/01 06:16:22;;;;;;;17.90;11.63;;;;;;;8.66;67.87;98902.03;5091931;28;20028;-49
2022/12/01 06:18:48;;;;;;;18.88;11.57;;;;;;;8.62;67.96;98891.13;5091678;28;20048;-49
2022/12/01 06:21:13;;;;;;;27.20;11.48;;;;;;;8.65;68.00;98893.34;5091775;28;20483;-48
2022/12/01 06:23:39;;;;;;;23.88;13.50;;;;;;;8.69;67.97;98901.66;5091844;28;20028;-48
2022/12/01 06:26:04;;;;;;;22.17;12.15;;;;;;;8.61;67.47;98902.56;5091808;28;20028;-48
2022/12/01 06:28:30;;;;;;;23.70;12.43;;;;;;;8.44;67.76;98904.56;5093043;28;20039;-48
2022/12/01 06:30:56;;;;;;;20.15;13.00;;;;;;;8.44;68.49;98904.56;5091659;28;20024;-48
2022/12/01 06:33:21;;;;;;;21.08;12.77;;;;;;;8.48;68.55;98908.44;5093270;28;20066;-48
2022/12/01 06:35:47;;;;;;;17.30;12.15;;;;;;;8.40;68.64;98913.75;5091517;28;20020;-49
2022/12/01 06:38:12;;;;;;;18.65;12.52;;;;;;;8.35;68.72;98909.06;5091576;28;20024;-48
2022/12/01 06:40:38;;;;;;;24.92;13.98;;;;;;;8.18;68.70;98916.25;5091474;28;20027;-48
2022/12/01 06:43:04;;;;;;;29.17;14.98;;;;;;;7.93;69.29;98917.50;5092771;28;20028;-48
2022/12/01 06:45:33;;;;;;;24.38;14.75;;;;;;;7.78;70.58;98920.84;5091487;28;20028;-48
2022/12/01 06:47:58;;;;;;;20.00;15.90;;;;;;;7.65;71.00;98922.47;5091436;28;20068;-48
2022/12/01 06:50:24;;;;;;;24.27;14.30;;;;;;;7.66;71.82;98924.06;5091374;28;20085;-48
2022/12/01 06:52:51;;;;;;;21.70;15.23;;;;;;;7.51;71.37;98926.66;5092886;28;20024;-48
2022/12/01 06:55:17;;;;;;;33.60;16.67;;;;;;;7.49;72.62;98923.41;5092588;28;20020;-48
2022/12/01 06:57:42;;;;;;;24.02;15.70;;;;;;;7.71;72.69;98924.38;5092529;28;20032;-48
2022/12/01 07:00:08;;;;;;;22.23;12.98;;;;;;;7.92;72.03;98932.34;5092385;28;20016;-48
2022/12/01 07:02:34;;;;;;;25.63;16.02;;;;;;;8.05;71.80;98917.84;5092525;28;20031;-48
2022/12/01 07:05:00;;;;;;;26.65;15.52;;;;;;;8.25;71.32;98918.13;5092470;28;20099;-49
2022/12/01 07:07:26;;;;;;;19.25;14.63;;;;;;;8.47;70.78;98930.38;5091119;28;20035;-48
2022/12/01 07:09:51;;;;;;;20.13;13.80;;;;;;;8.64;70.58;98931.00;5092389;28;20024;-48
2022/12/01 07:12:17;;;;;;;21.90;14.13;;;;;;;8.74;70.26;98933.34;5092344;28;20074;-48
2022/12/01 07:14:42;;;;;;;21.60;13.77;;;;;;;8.73;69.72;98932.53;5090962;28;20012;-48
2022/12/01 07:17:08;;;;;;;25.73;14.10;;;;;;;8.70;69.68;98935.50;5090894;28;20024;-48
2022/12/01 07:19:35;;;;;;;32.45;13.73;;;;;;;8.65;69.88;98944.88;5089961;28;20063;-48
2022/12/01 07:22:00;;;;;;;25.52;14.77;;;;;;;8.50;69.40;98943.06;5091820;28;20028;-48
2022/12/01 07:24:26;;;;;;;30.30;14.60;;;;;;;8.44;69.94;98950.84;5092166;28;20036;-48
2022/12/01 07:26:51;;;;;;;27.17;12.70;;;;;;;8.34;69.89;98953.69;5092087;28;20020;-48
2022/12/01 07:29:17;;;;;;;22.83;13.75;;;;;;;8.37;70.16;98963.78;5090785;28;20024;-48
2022/12/01 07:31:43;;;;;;;16.02;11.93;;;;;;;8.46;69.79;98962.75;5090773;28;20031;-48
2022/12/01 07:34:12;;;;;;;16.90;11.80;;;;;;;8.51;69.38;98957.78;5091940;28;20036;-49
2022/12/01 07:36:38;;;;;;;20.90;11.85;;;;;;;8.57;69.10;98957.06;5092195;28;20173;-49
2022/12/01 07:39:06;;;;;;;16.55;11.88;;;;;;;8.64;68.57;98959.75;5092015;28;20048;-49
2022/12/01 07:41:32;;;;;;;24.38;12.32;;;;;;;8.71;68.43;98957.22;5091789;28;20095;-49
2022/12/01 07:43:58;;;;;;;15.80;11.63;;;;;;;8.75;67.84;98964.56;5091904;28;20027;-49
2022/12/01 07:46:25;;;;;;;20.90;11.85;;;;;;;8.71;67.81;98963.28;5091896;28;20506;-48
2022/12/01 07:48:53;;;;;;;17.63;11.77;;;;;;;8.74;67.19;98964.72;5090533;28;20024;-48
2022/12/01 07:51:20;;;;;;;17.80;12.10;;;;;;;8.74;67.47;98968.16;5092021;28;20486;-48
2022/12/01 07:53:48;;;;;;;21.40;11.77;;;;;;;8.80;67.42;98979.72;5090484;28;20489;-48
2022/12/01 07:56:14;;;;;;;23.35;12.35;;;;;;;8.85;66.92;98974.72;5091744;28;20035;-48
2022/12/01 07:58:40;;;;;;;23.98;12.00;;;;;;;8.90;66.75;98969.78;5090502;28;20020;-48
2022/12/01 08:01:12;;;;;;;24.30;14.10;;;;;;;8.86;66.22;98971.13;5090325;28;20020;-48
2022/12/01 08:03:40;;;;;;;17.45;12.60;;;;;;;8.48;66.54;98975.66;5090411;28;20017;-49
2022/12/01 08:06:07;;;;;;;26.75;15.93;;;;;;;8.28;67.75;98973.50;5090373;28;20031;-48
2022/12/01 08:08:35;;;;;;;19.52;12.93;;;;;;;8.32;68.37;98979.19;5091621;28;20497;-48
2022/12/01 08:11:03;;;;;;;22.27;13.52;;;;;;;8.43;68.40;98977.97;5091644;28;20016;-48
2022/12/01 08:13:29;;;;;;;18.15;12.57;;;;;;;8.37;68.14;98987.31;5091666;28;20107;-48
2022/12/01 08:15:56;;;;;;;20.80;12.52;;;;;;;8.46;68.09;98985.47;5090275;28;20099;-49
2022/12/01 08:18:22;;;;;;;33.17;12.80;;;;;;;8.62;67.74;98985.28;5091388;28;20044;-49
2022/12/01 08:20:48;;;;;;;20.20;11.55;;;;;;;8.77;67.43;98985.28;5091448;28;20031;-48
2022/12/01 08:23:14;;;;;;;26.65;13.32;;;;;;;8.89;67.11;98983.84;5090231;28;20028;-49
2022/12/01 08:25:40;;;;;;;27.48;11.43;;;;;;;8.86;66.84;98986.03;5091460;28;20515;-48
2022/12/01 08:28:05;;;;;;;24.83;12.68;;;;;;;8.85;66.52;98985.19;5091411;28;20032;-48
2022/12/01 08:30:31;;;;;;;18.30;11.75;;;;;;;8.91;66.31;98986.28;5093917;28;20034;-49
2022/12/01 08:32:57;;;;;;;22.05;11.82;;;;;;;9.01;66.26;98981.56;5093953;28;20398;-48
2022/12/01 08:35:23;;;;;;;20.45;12.90;;;;;;;9.07;66.49;98980.84;5095272;28;20038;-48
2022/12/01 08:37:52;;;;;;;26.55;12.82;;;;;;;8.97;65.89;98982.94;5093922;28;20497;-49
2022/12/01 08:40:19;;;;;;;22.42;13.40;;;;;;;8.64;66.57;98982.50;5093810;28;20469;-49
2022/12/01 08:42:45;;;;;;;18.17;13.23;;;;;;;8.54;67.40;98985.38;5095147;28;20118;-49
2022/12/01 08:45:10;;;;;;;25.48;14.18;;;;;;;8.55;67.48;98984.38;5095048;28;20051;-49
2022/12/01 08:47:36;;;;;;;19.70;12.82;;;;;;;8.58;67.78;98984.84;5095052;28;20020;-48
2022/12/01 08:50:03;;;;;;;23.40;12.55;;;;;;;8.71;67.24;98983.41;5094968;28;20415;-48
2022/12/01 08:52:33;;;;;;;19.95;12.65;;;;;;;8.81;66.98;98991.78;5094974;28;20044;-49
2022/12/01 08:54:59;;;;;;;23.38;12.20;;;;;;;8.90;66.69;98984.66;5093582;28;20115;-49
2022/12/01 08:57:24;;;;;;;26.55;13.80;;;;;;;9.00;66.34;98985.19;5094945;28;20095;-49
2022/12/01 08:59:50;;;;;;;21.08;13.25;;;;;;;9.11;66.65;98991.75;5093414;28;20028;-49
2022/12/01 09:02:21;;;;;;;26.35;13.20;;;;;;;9.23;65.91;98992.09;5093463;28;20020;-48
2022/12/01 09:04:48;;;;;;;23.95;13.68;;;;;;;9.23;65.57;98994.72;5094742;28;20024;-49
2022/12/01 09:07:15;;;;;;;18.30;12.77;;;;;;;9.24;65.71;98991.13;5093314;28;20503;-48
2022/12/01 09:09:43;;;;;;;17.05;12.90;;;;;;;9.24;65.88;98993.75;5094700;28;20020;-49
2022/12/01 09:12:08;;;;;;;18.30;13.35;;;;;;;9.22;66.01;98993.91;5094629;28;20405;-48
2022/12/01 09:14:46;;;;;;;30.17;15.20;;;;;;;9.18;65.85;98990.84;5094526;28;20024;-48
2022/12/01 09:17:14;;;;;;;24.38;13.38;;;;;;;9.17;65.73;98991.81;5094575;28;20492;-48
2022/12/01 09:19:39;;;;;;;17.88;13.18;;;;;;;9.11;65.59;98989.94;5092943;28;20052;-48
2022/12/01 09:22:05;;;;;;;25.08;12.20;;;;;;;9.15;65.78;98995.63;5094234;28;20024;-49
2022/12/01 09:24:31;;;;;;;23.30;11.68;;;;;;;9.25;65.75;98992.72;5094610;28;20081;-49
2022/12/01 09:26:58;;;;;;;27.77;12.52;;;;;;;9.18;64.95;98992.66;5092967;28;20118;-49
2022/12/01 09:29:24;;;;;;;23.13;12.32;;;;;;;9.09;65.35;98991.94;5094327;28;20050;-49
2022/12/01 09:31:50;;;;;;;20.15;12.85;;;;;;;9.04;65.80;98988.25;5094181;28;20065;-49
2022/12/01 09:34:18;;;;;;;22.05;12.68;;;;;;;9.20;65.79;98986.25;5094144;28;20024;-49
2022/12/01 09:36:45;;;;;;;19.02;13.05;;;;;;;9.42;64.84;98991.53;5094095;28;20019;-48
2022/12/01 09:39:13;;;;;;;16.02;10.82;;;;;;;9.45;64.04;98998.19;5092755;28;20024;-49
2022/12/01 09:42:01;;;;;;;31.83;14.20;;;;;;;9.31;64.41;98994.59;5091843;28;20501;-48
2022/12/01 09:44:48;;;;;;;32.55;14.15;;;;;;;9.43;64.85;99000.19;5094063;28;20115;-49
2022/12/01 09:47:30;;;;;;;17.50;12.13;;;;;;;9.55;63.76;98998.69;5093964;28;20028;-48
2022/12/01 09:50:05;;;;;;;27.17;11.68;;;;;;;9.62;63.31;99004.00;5093922;28;20103;-48
2022/12/01 09:52:48;;;;;;;24.38;12.65;;;;;;;9.63;63.25;99001.19;5093814;28;20036;-49
2022/12/01 09:55:18;;;;;;;23.40;12.57;;;;;;;9.67;63.15;98997.22;5093813;28;20103;-49
2022/12/01 09:57:49;;;;;;;19.35;10.50;;;;;;;9.75;62.79;99002.31;5093722;28;20024;-49
2022/12/01 10:00:28;;;;;;;17.10;10.60;;;;;;;9.89;62.85;99002.47;5093616;28;20559;-48
2022/12/01 10:03:25;;;;;;;18.77;12.07;;;;;;;10.04;62.39;99000.59;5092367;28;20038;-49
2022/12/01 10:06:00;;;;;;;18.50;11.00;;;;;;;10.11;61.75;98995.41;5092236;28;20028;-48
2022/12/01 10:08:30;;;;;;;17.35;12.30;;;;;;;10.10;62.26;98991.97;5093508;28;20036;-49
2022/12/01 10:11:23;;;;;;;38.08;32.10;;;;;;;10.16;61.80;98993.81;5093478;28;20028;-48
2022/12/01 10:13:49;;;;;;;22.80;17.85;;;;;;;10.16;61.62;98993.81;5093463;28;20626;-49
2022/12/01 10:16:26;;;;;;;22.83;11.80;;;;;;;10.11;61.86;98988.31;5092133;28;20051;-48
2022/12/01 10:19:21;;;;;;;32.38;15.88;;;;;;;10.14;61.35;98989.75;5091784;28;20372;-49
2022/12/01 10:22:01;;;;;;;23.65;14.38;;;;;;;10.06;61.15;98982.84;5093165;28;20028;-49
2022/12/01 10:24:42;;;;;;;17.50;12.13;;;;;;;9.98;61.50;98980.38;5093240;28;20019;-48
2022/12/01 10:27:17;;;;;;;16.00;11.95;;;;;;;10.00;61.44;98981.00;5093168;28;20152;-48
2022/12/01 10:30:07;;;;;;;17.02;10.82;;;;;;;10.00;61.92;98979.19;5093341;28;20035;-48
2022/12/01 10:33:02;;;;;;;16.25;10.43;;;;;;;10.13;60.97;98975.03;5082152;28;20173;-49
2022/12/01 10:35:38;;;;;;;20.35;11.18;;;;;;;10.23;61.07;98978.13;5091837;28;20020;-48
2022/12/01 10:38:05;;;;;;;;;;;;;;;10.33;60.99;98969.97;5093434;28;20031;-49
2022/12/01 10:40:34;;;;;;;18.10;11.00;;;;;;;10.45;60.82;98970.25;5091436;28;19919;-49
2022/12/01 10:43:00;;;;;;;17.95;13.02;;;;;;;10.51;60.73;98967.66;5091683;28;20020;-49
2022/12/01 10:45:29;;;;;;;15.50;11.23;;;;;;;10.53;60.09;98970.09;5092724;28;20031;-48
2022/12/01 10:48:19;;;;;;;21.55;11.63;;;;;;;10.43;59.88;98967.81;5092810;28;20024;-49
2022/12/01 10:50:51;;;;;;;19.10;11.10;;;;;;;10.37;60.40;98972.00;5091414;28;20115;-49
2022/12/01 10:53:25;;;;;;;15.85;10.52;;;;;;;10.52;59.91;98971.09;5091386;28;20529;-48
2022/12/01 10:56:03;;;;;;;18.77;10.77;;;;;;;10.64;59.48;98966.91;5091344;28;20032;-49
2022/12/01 10:58:32;;;;;;;16.40;11.30;;;;;;;10.62;59.46;98968.13;5092866;28;20047;-48
2022/12/01 11:01:03;;;;;;;17.70;11.35;;;;;;;10.55;59.22;98958.38;5091219;28;20016;-49
2022/12/01 11:03:32;;;;;;;24.70;11.63;;;;;;;10.52;59.84;98956.16;5092576;28;20056;-49
2022/12/01 11:06:00;;;;;;;14.60;10.68;;;;;;;10.55;60.19;98960.22;5092447;28;20034;-49
2022/12/01 11:08:32;;;;;;;17.15;9.77;;;;;;;10.54;59.21;98958.56;5092692;28;20039;-49
2022/12/01 11:10:58;;;;;;;16.52;10.15;;;;;;;10.53;59.32;98968.28;5091057;28;20512;-49
2022/12/01 11:13:28;;;;;;;15.43;9.77;;;;;;;10.44;59.57;98960.75;5091028;28;20030;-48
2022/12/01 11:15:57;;;;;;;15.32;10.10;;;;;;;10.44;59.21;98961.53;5092273;28;20017;-49
2022/12/01 11:18:33;;;;;;;18.58;9.85;;;;;;;10.49;59.02;98958.38;5090706;28;20055;-49
2022/12/01 11:21:27;;;;;;;12.77;9.82;;;;;;;10.40;58.96;98957.69;5092078;28;20086;-48
2022/12/01 11:23:55;;;;;;;15.10;9.80;;;;;;;10.35;59.09;98963.50;5092060;28;20040;-48
2022/12/01 11:26:31;;;;;;;15.45;10.15;;;;;;;10.44;59.53;98956.28;5090815;28;20020;-48
2022/12/01 11:28:59;;;;;;;13.68;10.05;;;;;;;10.53;58.95;98959.59;5090968;28;20486;-49
2022/12/01 11:31:46;;;;;;;20.30;11.43;;;;;;;10.31;59.40;98953.59;5092048;28;20031;-49
2022/12/01 11:34:28;;;;;;;15.13;10.02;;;;;;;10.37;59.90;98958.09;5092067;28;20477;-49
2022/12/01 11:36:58;;;;;;;15.27;9.38;;;;;;;10.31;59.62;98964.91;5073913;28;20027;-49
2022/12/01 11:39:28;;;;;;;17.08;11.43;;;;;;;10.24;59.85;98964.03;5091984;28;20478;-48